Time;durP1;ratioP1;P1;durP2;ratioP2;P2;SDS_P1;SDS_P2;PMS_P1;PMS_P2;Temp;Humidity;BMP_temperature;BMP_pressure;BME280_temperature;BME280_humidity;BME280_pressure;Samples;Min_cycle;Max_cycle;Signal;HPM_P1;HPM_P2
2024/01/23 00:00:25;;;;;;;19.60;3.23;;;6.30;89.70;;;;;;5018637;28;20467;-77
2024/01/23 00:02:51;;;;;;;21.40;3.30;;;6.30;87.90;;;;;;5011917;28;20393;-77
2024/01/23 00:05:16;;;;;;;22.23;3.97;;;6.30;87.00;;;;;;5019442;28;20449;-77
2024/01/23 00:07:42;;;;;;;21.20;3.53;;;6.30;86.10;;;;;;5018685;28;20929;-77
2024/01/23 00:10:08;;;;;;;20.73;3.72;;;6.40;84.30;;;;;;5019193;28;20399;-77
2024/01/23 00:12:33;;;;;;;20.80;3.43;;;6.40;83.10;;;;;;5017981;28;20397;-77
2024/01/23 00:14:59;;;;;;;18.30;3.03;;;6.30;82.10;;;;;;5018818;28;20403;-77
2024/01/23 00:17:25;;;;;;;19.05;3.60;;;6.30;81.60;;;;;;5018067;28;20440;-77
2024/01/23 00:19:51;;;;;;;17.07;3.03;;;6.20;81.30;;;;;;5018322;28;20439;-77
2024/01/23 00:22:16;;;;;;;21.40;3.43;;;6.20;81.30;;;;;;5018634;28;20520;-77
2024/01/23 00:24:42;;;;;;;18.35;3.70;;;6.20;81.10;;;;;;5019109;28;20505;-77
2024/01/23 00:27:08;;;;;;;20.03;3.83;;;6.10;80.50;;;;;;5018325;28;20405;-77
2024/01/23 00:29:34;;;;;;;21.67;4.00;;;6.10;80.50;;;;;;5010184;28;21124;-77
2024/01/23 00:32:01;;;;;;;20.08;3.50;;;6.10;79.80;;;;;;5024486;28;20471;-77
2024/01/23 00:34:27;;;;;;;22.47;3.60;;;6.10;79.30;;;;;;5015852;28;22777;-77
2024/01/23 00:36:52;;;;;;;25.63;4.05;;;6.10;79.30;;;;;;5009971;28;20542;-77
2024/01/23 00:39:18;;;;;;;19.95;3.45;;;6.10;79.20;;;;;;5013152;28;20920;-77
2024/01/23 00:41:44;;;;;;;21.73;4.53;;;6.00;78.80;;;;;;5013565;28;20405;-77
2024/01/23 00:44:10;;;;;;;20.10;3.87;;;6.00;78.50;;;;;;4993495;28;20412;-77
2024/01/23 00:46:35;;;;;;;22.42;3.42;;;6.00;78.50;;;;;;4997209;28;20412;-77
2024/01/23 00:49:01;;;;;;;17.83;3.47;;;6.00;78.60;;;;;;5015411;28;20401;-77
2024/01/23 00:51:28;;;;;;;20.43;4.10;;;6.00;78.70;;;;;;5016110;28;20409;-77
2024/01/23 00:53:54;;;;;;;18.65;3.25;;;6.00;78.90;;;;;;5016639;28;21036;-77
2024/01/23 00:56:19;;;;;;;20.77;3.40;;;6.00;78.60;;;;;;5016405;28;20401;-77
2024/01/23 00:58:45;;;;;;;21.15;4.18;;;6.00;77.90;;;;;;5016272;28;20415;-77
2024/01/23 01:01:11;;;;;;;17.87;3.67;;;6.10;77.30;;;;;;5015772;28;20429;-77
2024/01/23 01:03:37;;;;;;;20.27;3.70;;;6.00;77.20;;;;;;5016752;28;21745;-77
2024/01/23 01:06:03;;;;;;;20.83;4.20;;;6.00;77.10;;;;;;5016219;28;20407;-77
2024/01/23 01:08:29;;;;;;;22.77;3.90;;;6.00;77.40;;;;;;5016718;28;20473;-77
2024/01/23 01:10:54;;;;;;;22.67;3.92;;;6.00;77.90;;;;;;5016473;28;20464;-78
2024/01/23 01:13:20;;;;;;;20.33;3.70;;;6.00;77.90;;;;;;5016426;28;20395;-76
2024/01/23 01:15:46;;;;;;;20.93;3.30;;;6.00;77.80;;;;;;5015560;28;20944;-77
2024/01/23 01:18:11;;;;;;;21.15;3.78;;;6.10;77.20;;;;;;5016762;28;20784;-77
2024/01/23 01:20:37;;;;;;;20.45;3.67;;;6.10;75.40;;;;;;5010812;28;20433;-77
2024/01/23 01:23:03;;;;;;;21.08;3.40;;;6.20;73.90;;;;;;5016220;28;21732;-78
2024/01/23 01:25:29;;;;;;;23.90;4.03;;;6.10;72.80;;;;;;5010358;28;20491;-77
2024/01/23 01:27:54;;;;;;;20.57;3.80;;;6.10;72.70;;;;;;5008511;28;20747;-78
2024/01/23 01:30:26;;;;;;;23.48;3.85;;;6.10;72.60;;;;;;5007832;28;20416;-77
2024/01/23 01:32:52;;;;;;;20.57;3.67;;;6.10;72.10;;;;;;5015290;28;20407;-77
2024/01/23 01:35:17;;;;;;;21.20;3.77;;;6.00;72.20;;;;;;5012841;28;20487;-78
2024/01/23 01:37:43;;;;;;;20.88;3.22;;;6.00;71.80;;;;;;5015151;28;20414;-78
2024/01/23 01:40:09;;;;;;;19.30;3.23;;;6.00;72.30;;;;;;4991635;28;20527;-76
2024/01/23 01:42:35;;;;;;;20.23;3.47;;;6.00;71.30;;;;;;5015032;28;20403;-77
2024/01/23 01:45:00;;;;;;;22.57;3.37;;;6.00;71.20;;;;;;4995900;28;20426;-78
2024/01/23 01:47:26;;;;;;;21.02;3.95;;;6.00;70.50;;;;;;5015891;28;20402;-78
2024/01/23 01:49:52;;;;;;;21.20;3.45;;;6.00;70.20;;;;;;4998221;28;20466;-77
2024/01/23 01:52:19;;;;;;;20.97;4.00;;;6.00;69.50;;;;;;5001019;28;20402;-78
2024/01/23 01:54:46;;;;;;;22.15;3.97;;;6.00;68.00;;;;;;5015394;28;20409;-77
2024/01/23 01:57:13;;;;;;;27.65;4.18;;;6.00;67.60;;;;;;4998404;28;20392;-77
2024/01/23 01:59:39;;;;;;;22.42;3.72;;;6.00;67.50;;;;;;4996155;28;20444;-76
2024/01/23 02:02:07;;;;;;;17.42;3.38;;;6.00;67.70;;;;;;5016333;28;20433;-77
2024/01/23 02:04:32;;;;;;;24.05;3.95;;;5.90;68.00;;;;;;5014765;28;20444;-77
2024/01/23 02:06:58;;;;;;;22.25;4.45;;;5.90;68.60;;;;;;5005908;28;20435;-77
2024/01/23 02:09:24;;;;;;;21.07;3.73;;;5.90;68.70;;;;;;4996224;28;20420;-77
2024/01/23 02:11:57;;;;;;;23.65;4.07;;;5.90;69.10;;;;;;4990967;28;20436;-77
2024/01/23 02:14:22;;;;;;;22.08;4.45;;;5.80;69.60;;;;;;5012660;28;20922;-77
2024/01/23 02:16:48;;;;;;;19.88;4.00;;;5.80;70.40;;;;;;5014783;28;20421;-77
2024/01/23 02:19:15;;;;;;;21.83;3.93;;;5.80;71.10;;;;;;5007324;28;20755;-77
2024/01/23 02:21:41;;;;;;;20.25;3.35;;;5.80;71.80;;;;;;5009918;28;20400;-78
2024/01/23 02:24:07;;;;;;;19.83;3.90;;;5.70;72.10;;;;;;5017629;28;20427;-77
2024/01/23 02:26:33;;;;;;;19.33;3.67;;;5.70;72.40;;;;;;4994880;28;20448;-77
2024/01/23 02:28:58;;;;;;;22.20;4.32;;;5.70;73.20;;;;;;4995298;28;20890;-77
2024/01/23 02:31:24;;;;;;;22.70;3.73;;;5.70;74.10;;;;;;4990284;28;20423;-77
2024/01/23 02:33:49;;;;;;;25.13;4.77;;;5.70;74.60;;;;;;5007837;28;20821;-76
2024/01/23 02:36:15;;;;;;;21.63;3.75;;;5.80;74.50;;;;;;5017537;28;20408;-77
2024/01/23 02:38:41;;;;;;;20.33;5.00;;;5.80;74.10;;;;;;5005131;28;20402;-77
2024/01/23 02:41:06;;;;;;;20.97;4.47;;;5.80;73.90;;;;;;5018103;28;20487;-77
2024/01/23 02:43:32;;;;;;;19.85;3.65;;;5.80;73.40;;;;;;4993986;28;20440;-78
2024/01/23 02:45:58;;;;;;;26.83;3.97;;;5.80;73.40;;;;;;5016761;28;20401;-78
2024/01/23 02:48:23;;;;;;;20.60;3.70;;;5.80;73.70;;;;;;4992907;28;20896;-77
2024/01/23 02:50:49;;;;;;;21.95;4.95;;;5.80;73.70;;;;;;4993849;28;20411;-77
2024/01/23 02:53:15;;;;;;;21.87;4.00;;;5.90;73.80;;;;;;4999784;28;20488;-78
2024/01/23 02:55:41;;;;;;;23.95;4.40;;;5.90;73.80;;;;;;5011122;28;20409;-78
2024/01/23 02:58:10;;;;;;;22.92;4.63;;;5.90;74.60;;;;;;5010741;28;20408;-77
2024/01/23 03:00:38;;;;;;;20.43;4.17;;;5.90;73.30;;;;;;5011166;28;20428;-78
2024/01/23 03:03:04;;;;;;;21.98;3.97;;;6.10;73.00;;;;;;5011856;28;20415;-78
2024/01/23 03:05:30;;;;;;;24.42;4.88;;;6.10;72.30;;;;;;4998860;28;20933;-77
2024/01/23 03:07:55;;;;;;;23.57;4.00;;;6.10;72.20;;;;;;5011714;28;20444;-77
2024/01/23 03:10:21;;;;;;;23.70;4.30;;;6.20;71.30;;;;;;5010517;28;20462;-77
2024/01/23 03:12:47;;;;;;;22.87;4.63;;;6.20;71.00;;;;;;5011256;28;20415;-77
2024/01/23 03:15:12;;;;;;;23.08;4.40;;;6.20;68.80;;;;;;5012377;28;20499;-77
2024/01/23 03:17:38;;;;;;;27.03;4.80;;;6.20;69.20;;;;;;5010807;28;20404;-78
2024/01/23 03:20:04;;;;;;;31.60;5.37;;;6.20;68.50;;;;;;5011784;28;20449;-77
2024/01/23 03:22:30;;;;;;;25.13;4.47;;;6.20;68.10;;;;;;5011334;28;20487;-77
2024/01/23 03:24:55;;;;;;;27.02;4.53;;;6.20;68.40;;;;;;5010910;28;20993;-78
2024/01/23 03:27:21;;;;;;;25.70;4.32;;;6.20;68.00;;;;;;4983096;28;20408;-78
2024/01/23 03:29:48;;;;;;;21.23;4.60;;;6.30;64.70;;;;;;5016367;28;20396;-77
2024/01/23 03:32:13;;;;;;;26.27;4.78;;;6.30;64.20;;;;;;5017056;28;20440;-77
2024/01/23 03:34:39;;;;;;;22.70;4.77;;;6.40;63.50;;;;;;5021810;28;20397;-77
2024/01/23 03:37:06;;;;;;;24.85;4.22;;;6.30;63.10;;;;;;5019126;28;20463;-77
2024/01/23 03:39:32;;;;;;;23.63;5.07;;;6.30;62.80;;;;;;5009822;28;20785;-77
2024/01/23 03:41:58;;;;;;;26.35;4.95;;;6.30;63.00;;;;;;5010720;28;20404;-78
2024/01/23 03:44:27;;;;;;;23.63;4.63;;;6.30;63.10;;;;;;4992507;28;20459;-77
2024/01/23 03:46:53;;;;;;;26.75;5.00;;;6.40;62.40;;;;;;5025032;28;20517;-78
2024/01/23 03:49:19;;;;;;;22.93;4.17;;;6.40;61.90;;;;;;4998350;28;20504;-77
2024/01/23 03:51:45;;;;;;;21.43;3.67;;;6.50;60.40;;;;;;5016894;28;20452;-77
2024/01/23 03:54:10;;;;;;;23.43;4.50;;;6.50;58.90;;;;;;5021402;28;20442;-78
2024/01/23 03:56:36;;;;;;;25.35;4.97;;;6.50;57.60;;;;;;5019360;28;20886;-78
2024/01/23 03:59:02;;;;;;;30.03;5.40;;;6.60;57.00;;;;;;5018065;28;20415;-78
2024/01/23 04:01:27;;;;;;;29.67;5.90;;;6.60;56.90;;;;;;4999641;28;20512;-78
2024/01/23 04:03:53;;;;;;;30.05;5.45;;;6.60;56.50;;;;;;5021326;28;20768;-78
2024/01/23 04:06:19;;;;;;;28.33;5.60;;;6.60;56.70;;;;;;5020616;28;20439;-77
2024/01/23 04:08:44;;;;;;;33.60;5.70;;;6.60;56.30;;;;;;5021680;28;20391;-78
2024/01/23 04:11:10;;;;;;;20.40;4.45;;;6.70;56.90;;;;;;5020609;28;20765;-77
2024/01/23 04:13:36;;;;;;;29.17;5.57;;;6.70;57.60;;;;;;5021015;28;20833;-77
2024/01/23 04:16:02;;;;;;;26.25;5.05;;;6.70;55.50;;;;;;5020244;28;20405;-77
2024/01/23 04:18:28;;;;;;;25.13;4.63;;;6.70;55.30;;;;;;4991518;28;20415;-78
2024/01/23 04:20:53;;;;;;;27.17;4.73;;;6.80;55.70;;;;;;5016712;28;20436;-78
2024/01/23 04:23:19;;;;;;;25.52;5.35;;;6.70;55.40;;;;;;5020802;28;20418;-77
2024/01/23 04:25:45;;;;;;;26.97;4.77;;;6.80;55.60;;;;;;5019396;28;20416;-77
2024/01/23 04:28:10;;;;;;;24.17;4.20;;;6.80;55.10;;;;;;4998005;28;20473;-78
2024/01/23 04:30:36;;;;;;;26.85;4.85;;;6.80;55.70;;;;;;5009279;28;20420;-78
2024/01/23 04:33:01;;;;;;;24.50;4.77;;;6.80;53.80;;;;;;5013124;28;20419;-78
2024/01/23 04:35:27;;;;;;;31.50;5.10;;;6.80;54.20;;;;;;5017434;28;20412;-78
2024/01/23 04:37:53;;;;;;;27.53;5.63;;;6.90;54.70;;;;;;5015654;28;20834;-78
2024/01/23 04:40:18;;;;;;;32.23;6.30;;;6.90;54.30;;;;;;5016547;28;20591;-78
2024/01/23 04:42:44;;;;;;;30.63;5.50;;;6.90;53.50;;;;;;5020808;28;20406;-78
2024/01/23 04:45:10;;;;;;;23.33;4.60;;;6.90;54.40;;;;;;5019780;28;20420;-78
2024/01/23 04:47:36;;;;;;;28.07;5.03;;;6.90;55.50;;;;;;5028535;28;20411;-78
2024/01/23 04:50:02;;;;;;;25.17;5.17;;;6.90;55.10;;;;;;5024385;28;20500;-77
2024/01/23 04:52:27;;;;;;;27.70;5.57;;;6.90;55.00;;;;;;5011990;28;20427;-78
2024/01/23 04:54:53;;;;;;;27.63;4.75;;;6.90;55.80;;;;;;5017971;28;20477;-79
2024/01/23 04:57:18;;;;;;;28.47;6.00;;;7.00;56.10;;;;;;5022154;28;20403;-78
2024/01/23 04:59:44;;;;;;;23.90;5.10;;;6.90;55.90;;;;;;5021950;28;20828;-78
2024/01/23 05:02:10;;;;;;;33.63;5.80;;;7.00;56.20;;;;;;5022090;28;20486;-78
2024/01/23 05:04:35;;;;;;;27.83;5.93;;;7.00;55.90;;;;;;5021096;28;20403;-78
2024/01/23 05:07:01;;;;;;;27.60;5.57;;;7.00;56.50;;;;;;5022285;28;20477;-78
2024/01/23 05:09:30;;;;;;;30.50;6.03;;;7.00;56.90;;;;;;5004298;28;20506;-79
2024/01/23 05:11:57;;;;;;;29.95;5.95;;;7.00;57.50;;;;;;5022357;28;20502;-78
2024/01/23 05:14:23;;;;;;;36.28;6.20;;;7.00;58.10;;;;;;5020938;28;21654;-78
2024/01/23 05:16:48;;;;;;;32.70;6.10;;;7.00;58.40;;;;;;5000114;28;20415;-78
2024/01/23 05:19:14;;;;;;;29.13;5.20;;;7.00;58.40;;;;;;5016863;28;21347;-78
2024/01/23 05:21:39;;;;;;;31.65;6.22;;;7.00;59.10;;;;;;5021978;28;20480;-78
2024/01/23 05:24:06;;;;;;;31.67;6.20;;;7.00;60.00;;;;;;5020809;28;20403;-78
2024/01/23 05:26:31;;;;;;;32.65;6.05;;;7.00;61.00;;;;;;5012091;28;20404;-78
2024/01/23 05:28:57;;;;;;;29.63;6.15;;;7.00;61.80;;;;;;5016619;28;20417;-78
2024/01/23 05:31:22;;;;;;;34.27;5.50;;;7.00;62.50;;;;;;5007685;28;20412;-78
2024/01/23 05:33:48;;;;;;;32.47;6.00;;;6.90;63.00;;;;;;5009140;28;20432;-78
2024/01/23 05:36:14;;;;;;;32.47;5.70;;;7.00;63.40;;;;;;5008914;28;20413;-78
2024/01/23 05:38:39;;;;;;;33.17;5.87;;;6.90;63.30;;;;;;4991023;28;20467;-78
2024/01/23 05:41:05;;;;;;;30.48;5.97;;;7.00;63.70;;;;;;4991240;28;20540;-78
2024/01/23 05:43:30;;;;;;;26.37;5.20;;;7.00;63.30;;;;;;5008464;28;20405;-78
2024/01/23 05:45:56;;;;;;;31.17;5.83;;;7.00;63.20;;;;;;5008938;28;20770;-78
2024/01/23 05:48:21;;;;;;;33.25;6.30;;;7.00;63.10;;;;;;4990765;28;20440;-78
2024/01/23 05:50:47;;;;;;;33.87;7.37;;;7.00;63.30;;;;;;4990638;28;20417;-77
2024/01/23 05:53:13;;;;;;;29.77;6.20;;;6.90;63.50;;;;;;4990545;28;21066;-78
2024/01/23 05:55:38;;;;;;;27.00;6.03;;;6.90;63.90;;;;;;5000384;28;20403;-78
2024/01/23 05:58:05;;;;;;;31.67;6.40;;;6.90;64.10;;;;;;5011058;28;20507;-78
2024/01/23 06:00:31;;;;;;;36.85;5.80;;;6.90;64.10;;;;;;5001548;28;20443;-78
2024/01/23 06:02:56;;;;;;;35.28;5.97;;;6.80;65.00;;;;;;5002208;28;20418;-77
2024/01/23 06:05:22;;;;;;;31.37;6.57;;;6.70;65.50;;;;;;5003127;28;20476;-78
2024/01/23 06:07:50;;;;;;;31.25;6.30;;;6.70;65.90;;;;;;5018377;28;20779;-78
2024/01/23 06:10:17;;;;;;;35.47;6.65;;;6.60;67.00;;;;;;5004820;28;20430;-78
2024/01/23 06:12:43;;;;;;;35.42;5.60;;;6.50;68.70;;;;;;5023107;28;20397;-78
2024/01/23 06:15:10;;;;;;;32.25;6.85;;;6.40;69.60;;;;;;4993698;28;21581;-78
2024/01/23 06:17:35;;;;;;;33.40;6.72;;;6.40;71.10;;;;;;5002791;28;20791;-78
2024/01/23 06:20:05;;;;;;;33.42;6.63;;;6.30;72.40;;;;;;4978622;28;20452;-78
2024/01/23 06:22:31;;;;;;;36.30;7.18;;;6.30;74.20;;;;;;5019745;28;20466;-79
2024/01/23 06:25:04;;;;;;;37.00;7.32;;;6.20;77.00;;;;;;5001954;28;20420;-80
2024/01/23 06:27:30;;;;;;;34.33;6.53;;;6.20;76.70;;;;;;5010787;28;20428;-78
2024/01/23 06:29:56;;;;;;;32.95;6.60;;;6.20;77.00;;;;;;5013760;28;20435;-79
2024/01/23 06:32:23;;;;;;;35.85;6.72;;;6.20;78.10;;;;;;5005267;28;20436;-78
2024/01/23 06:34:49;;;;;;;38.97;7.07;;;6.10;78.60;;;;;;5011855;28;20500;-78
2024/01/23 06:37:15;;;;;;;34.78;6.78;;;6.10;79.80;;;;;;4993703;28;20563;-78
2024/01/23 06:39:40;;;;;;;35.83;7.20;;;6.10;80.80;;;;;;5012176;28;20431;-78
2024/01/23 06:42:06;;;;;;;34.53;5.93;;;6.00;81.80;;;;;;4995641;28;20470;-77
2024/01/23 06:44:31;;;;;;;32.70;6.45;;;6.10;83.20;;;;;;5011833;28;20415;-78
2024/01/23 06:46:57;;;;;;;41.23;7.47;;;6.00;83.30;;;;;;4994416;28;20546;-78
2024/01/23 06:49:22;;;;;;;39.60;6.68;;;6.00;83.50;;;;;;5020235;28;20402;-78
2024/01/23 06:51:48;;;;;;;41.50;8.10;;;6.00;83.90;;;;;;5010988;28;20400;-77
2024/01/23 06:54:14;;;;;;;39.88;6.82;;;6.00;84.50;;;;;;4993952;28;20413;-77
2024/01/23 06:56:39;;;;;;;37.83;7.43;;;6.00;84.50;;;;;;5002358;28;20417;-78
2024/01/23 06:59:05;;;;;;;40.23;7.27;;;6.00;85.80;;;;;;5011595;28;20440;-78
2024/01/23 07:01:31;;;;;;;44.40;8.25;;;5.90;85.10;;;;;;4997901;28;20459;-78
2024/01/23 07:03:57;;;;;;;38.40;7.35;;;5.90;86.60;;;;;;4993270;28;20437;-77
2024/01/23 07:06:22;;;;;;;40.15;7.57;;;5.90;86.20;;;;;;4993369;28;20420;-78
2024/01/23 07:08:48;;;;;;;39.43;7.83;;;5.90;87.10;;;;;;5011818;28;20409;-78
2024/01/23 07:11:13;;;;;;;36.60;7.30;;;5.90;87.60;;;;;;4997360;28;20413;-77
2024/01/23 07:13:39;;;;;;;41.53;7.03;;;5.90;88.60;;;;;;5011469;28;20495;-79
2024/01/23 07:16:05;;;;;;;34.93;7.63;;;5.90;88.10;;;;;;5011324;28;20770;-78
2024/01/23 07:18:31;;;;;;;36.58;7.72;;;5.90;89.40;;;;;;4996408;28;20417;-78
2024/01/23 07:20:57;;;;;;;41.60;7.77;;;5.90;89.50;;;;;;5010322;28;20447;-78
2024/01/23 07:23:22;;;;;;;42.45;7.20;;;5.90;89.40;;;;;;5002761;28;20427;-77
2024/01/23 07:25:48;;;;;;;40.57;8.13;;;5.80;88.60;;;;;;5000281;28;20424;-78
2024/01/23 07:28:13;;;;;;;42.85;6.68;;;5.80;88.90;;;;;;4997963;28;20852;-78
2024/01/23 07:30:39;;;;;;;40.10;7.60;;;5.70;89.30;;;;;;4994353;28;20413;-78
2024/01/23 07:33:04;;;;;;;35.47;7.70;;;5.70;89.70;;;;;;5025465;28;20926;-78
2024/01/23 07:35:30;;;;;;;41.75;7.50;;;5.70;89.70;;;;;;5000617;28;20432;-78
2024/01/23 07:37:56;;;;;;;40.47;7.73;;;5.70;90.30;;;;;;4976163;28;20837;-78
2024/01/23 07:40:21;;;;;;;43.67;7.10;;;5.70;90.30;;;;;;5016324;28;20472;-78
2024/01/23 07:42:47;;;;;;;44.27;7.60;;;5.70;90.80;;;;;;5021792;28;20412;-78
2024/01/23 07:45:13;;;;;;;40.83;7.22;;;5.60;90.60;;;;;;5011580;28;20430;-77
2024/01/23 07:47:39;;;;;;;36.00;6.43;;;5.70;90.90;;;;;;5005503;28;20408;-78
2024/01/23 07:50:07;;;;;;;40.30;7.68;;;5.60;90.80;;;;;;5016455;28;20416;-78
2024/01/23 07:52:33;;;;;;;40.05;7.05;;;5.70;91.00;;;;;;5004499;28;20407;-78
2024/01/23 07:54:59;;;;;;;41.13;7.05;;;5.70;91.00;;;;;;5019192;28;20437;-78
2024/01/23 07:57:25;;;;;;;41.30;7.83;;;5.70;91.30;;;;;;5004080;28;20407;-77
2024/01/23 07:59:50;;;;;;;39.53;7.10;;;5.70;91.40;;;;;;5020510;28;20451;-78
2024/01/23 08:02:16;;;;;;;45.05;7.80;;;5.70;91.40;;;;;;4992048;28;20411;-77
2024/01/23 08:04:41;;;;;;;40.70;7.87;;;5.70;91.60;;;;;;5017521;28;20762;-78
2024/01/23 08:07:07;;;;;;;37.92;7.70;;;5.70;91.60;;;;;;4997064;28;20413;-78
2024/01/23 08:09:33;;;;;;;41.00;7.47;;;5.70;91.50;;;;;;5018771;28;20413;-78
2024/01/23 08:11:58;;;;;;;37.55;7.78;;;5.70;91.50;;;;;;4990942;28;20412;-78
2024/01/23 08:14:24;;;;;;;41.42;7.60;;;5.70;91.50;;;;;;5009289;28;20420;-78
2024/01/23 08:16:50;;;;;;;41.53;8.03;;;5.70;91.50;;;;;;4992742;28;20479;-78
2024/01/23 08:19:16;;;;;;;47.08;9.05;;;5.70;91.30;;;;;;5008481;28;20412;-78
2024/01/23 08:21:41;;;;;;;40.40;7.87;;;5.60;91.50;;;;;;5021808;28;20406;-78
2024/01/23 08:24:07;;;;;;;42.92;7.90;;;5.70;91.70;;;;;;5020983;28;20412;-78
2024/01/23 08:26:33;;;;;;;39.93;8.00;;;5.70;92.00;;;;;;4990907;28;20413;-78
2024/01/23 08:28:59;;;;;;;42.57;7.67;;;5.70;91.80;;;;;;5015154;28;20412;-78
2024/01/23 08:31:25;;;;;;;43.83;7.90;;;5.70;91.80;;;;;;5008298;28;20501;-78
2024/01/23 08:33:50;;;;;;;41.58;7.93;;;5.70;92.10;;;;;;5014620;28;20514;-78
2024/01/23 08:36:16;;;;;;;46.05;8.75;;;5.70;92.00;;;;;;5001738;28;20464;-78
2024/01/23 08:38:43;;;;;;;44.08;7.85;;;5.70;91.90;;;;;;5017370;28;20409;-78
2024/01/23 08:41:09;;;;;;;30.45;6.63;;;5.70;91.90;;;;;;5019258;28;20458;-78
2024/01/23 08:43:35;;;;;;;47.83;8.37;;;5.70;91.60;;;;;;5017630;28;20415;-78
2024/01/23 08:46:01;;;;;;;45.70;8.07;;;5.70;91.80;;;;;;5001187;28;20415;-78
2024/01/23 08:48:28;;;;;;;47.97;8.55;;;5.70;92.10;;;;;;5017659;28;20773;-78
2024/01/23 08:50:53;;;;;;;43.00;7.80;;;5.80;92.30;;;;;;5019602;28;20403;-78
2024/01/23 08:53:19;;;;;;;40.67;6.97;;;5.80;92.00;;;;;;5018368;28;20487;-78
2024/01/23 08:55:47;;;;;;;46.93;7.80;;;5.80;92.50;;;;;;5019972;28;20403;-77
2024/01/23 08:58:16;;;;;;;37.33;7.57;;;5.90;92.60;;;;;;5017008;28;20425;-78
2024/01/23 09:00:42;;;;;;;40.25;7.30;;;5.90;92.50;;;;;;5031094;28;20444;-78
2024/01/23 09:03:07;;;;;;;45.10;7.93;;;5.90;92.10;;;;;;5014990;28;20405;-78
2024/01/23 09:05:33;;;;;;;41.15;8.43;;;5.90;92.30;;;;;;5002181;28;20439;-78
2024/01/23 09:07:59;;;;;;;43.67;7.83;;;6.00;92.20;;;;;;5017068;28;21410;-77
2024/01/23 09:10:24;;;;;;;37.77;7.30;;;6.00;92.50;;;;;;5019541;28;20896;-78
2024/01/23 09:12:50;;;;;;;45.60;7.43;;;6.00;92.00;;;;;;5010468;28;20464;-78
2024/01/23 09:15:15;;;;;;;36.57;6.97;;;6.10;92.10;;;;;;5019398;28;20411;-77
2024/01/23 09:17:41;;;;;;;37.55;7.25;;;6.10;92.10;;;;;;4999878;28;20494;-78
2024/01/23 09:20:07;;;;;;;42.00;6.53;;;6.10;92.00;;;;;;5015135;28;20476;-78
2024/01/23 09:22:33;;;;;;;40.10;7.28;;;6.10;91.80;;;;;;5014607;28;20494;-78
2024/01/23 09:24:59;;;;;;;41.30;7.95;;;6.20;91.90;;;;;;5002597;28;20459;-78
2024/01/23 09:27:25;;;;;;;42.20;7.60;;;6.20;91.80;;;;;;5010596;28;20411;-78
2024/01/23 09:29:51;;;;;;;40.15;7.63;;;6.20;91.70;;;;;;4990403;28;20460;-79
2024/01/23 09:32:16;;;;;;;42.43;7.90;;;6.20;91.50;;;;;;5014700;28;20415;-77
2024/01/23 09:34:42;;;;;;;44.42;7.70;;;6.30;91.50;;;;;;5008128;28;20777;-78
2024/01/23 09:37:07;;;;;;;37.17;7.20;;;6.30;91.50;;;;;;4997875;28;20409;-78
2024/01/23 09:39:33;;;;;;;38.77;7.20;;;6.40;91.30;;;;;;5002141;28;20403;-78
2024/01/23 09:42:02;;;;;;;32.85;6.60;;;6.40;90.90;;;;;;5016962;28;20822;-78
2024/01/23 09:44:28;;;;;;;38.07;6.90;;;6.50;90.60;;;;;;5019667;28;20451;-78
2024/01/23 09:46:55;;;;;;;41.10;7.23;;;6.50;90.40;;;;;;5010068;28;21119;-77
2024/01/23 09:49:21;;;;;;;37.45;7.90;;;6.50;90.40;;;;;;5019719;28;21258;-78
2024/01/23 09:51:49;;;;;;;38.70;6.97;;;6.50;90.00;;;;;;5010127;28;20478;-77
2024/01/23 09:54:15;;;;;;;37.63;7.07;;;6.60;90.10;;;;;;5021209;28;20399;-78
2024/01/23 09:56:40;;;;;;;37.67;6.90;;;6.60;90.10;;;;;;5016824;28;20416;-79
2024/01/23 09:59:09;;;;;;;38.13;7.10;;;6.70;89.70;;;;;;4990126;28;20416;-78
2024/01/23 10:01:36;;;;;;;38.67;7.40;;;6.70;88.30;;;;;;5015131;28;20428;-79
2024/01/23 10:04:06;;;;;;;33.72;7.63;;;6.70;88.20;;;;;;5012656;28;20434;-78
2024/01/23 10:06:32;;;;;;;31.50;6.80;;;6.80;87.60;;;;;;4997192;28;21200;-79
2024/01/23 10:08:58;;;;;;;38.50;6.90;;;6.90;87.50;;;;;;5036010;28;20900;-78
2024/01/23 10:11:27;;;;;;;36.75;7.03;;;6.90;86.50;;;;;;5014589;28;20491;-77
2024/01/23 10:13:56;;;;;;;40.20;7.87;;;6.90;86.00;;;;;;5004949;28;20421;-78
2024/01/23 10:16:22;;;;;;;39.10;7.70;;;7.00;85.40;;;;;;5013642;28;20447;-78
2024/01/23 10:18:49;;;;;;;40.30;8.45;;;7.00;85.80;;;;;;5021538;28;20411;-78
2024/01/23 10:21:22;;;;;;;39.53;7.97;;;7.10;84.80;;;;;;5012806;28;20440;-78
2024/01/23 10:23:49;;;;;;;39.10;7.63;;;7.20;84.70;;;;;;5019802;28;20449;-78
2024/01/23 10:26:18;;;;;;;39.28;7.40;;;7.20;84.00;;;;;;5013804;28;20902;-78
2024/01/23 10:28:44;;;;;;;34.88;6.70;;;7.30;82.70;;;;;;5007972;28;20965;-77
2024/01/23 10:31:11;;;;;;;44.22;7.43;;;7.30;82.20;;;;;;4992257;28;20984;-78
2024/01/23 10:33:40;;;;;;;41.58;6.53;;;7.30;80.10;;;;;;5017181;28;21488;-78
2024/01/23 10:36:08;;;;;;;29.85;6.25;;;7.40;80.10;;;;;;5024884;28;20942;-78
2024/01/23 10:38:36;;;;;;;34.33;6.43;;;7.40;79.00;;;;;;5011359;28;20425;-78
2024/01/23 10:41:04;;;;;;;34.70;6.88;;;7.50;78.30;;;;;;4993110;28;20443;-78
2024/01/23 10:43:30;;;;;;;33.60;7.32;;;7.60;77.40;;;;;;5033198;28;20471;-78
2024/01/23 10:46:02;;;;;;;30.50;5.53;;;7.70;74.30;;;;;;5006984;28;20401;-78
2024/01/23 10:48:30;;;;;;;30.92;6.82;;;7.80;75.10;;;;;;5007636;28;20413;-78
2024/01/23 10:51:03;;;;;;;31.60;6.38;;;8.20;76.20;;;;;;5003896;28;20504;-78
2024/01/23 10:53:37;;;;;;;37.95;7.03;;;8.70;74.30;;;;;;5008061;28;20448;-78
2024/01/23 10:56:07;;;;;;;30.83;5.60;;;9.20;65.00;;;;;;5003291;28;20412;-78
2024/01/23 10:58:35;;;;;;;33.55;6.70;;;9.50;50.20;;;;;;5006830;28;20408;-78
2024/01/23 11:01:06;;;;;;;36.33;6.57;;;9.70;46.00;;;;;;5011519;28;20762;-77
2024/01/23 11:03:34;;;;;;;27.83;6.00;;;9.80;41.80;;;;;;5011868;28;20905;-78
2024/01/23 11:06:07;;;;;;;28.95;5.68;;;9.80;34.60;;;;;;4993656;28;20442;-78
2024/01/23 11:08:47;;;;;;;30.83;6.57;;;9.80;32.30;;;;;;4992166;28;20441;-78
2024/01/23 11:11:45;;;;;;;34.00;7.22;;;9.80;33.60;;;;;;5011698;28;20415;-78
2024/01/23 11:14:16;;;;;;;30.23;6.32;;;9.90;30.80;;;;;;4980604;28;20420;-78
2024/01/23 11:16:59;;;;;;;34.83;7.05;;;10.10;29.70;;;;;;5012566;28;20836;-78
2024/01/23 11:19:26;;;;;;;32.67;6.07;;;10.50;28.00;;;;;;5010879;28;20790;-78
2024/01/23 11:22:01;;;;;;;30.40;6.83;;;11.00;25.70;;;;;;5013234;28;20436;-78
2024/01/23 11:24:40;;;;;;;33.50;6.55;;;11.10;9.10;;;;;;4991436;28;20416;-78
2024/01/23 11:27:06;;;;;;;27.95;5.68;;;11.20;13.50;;;;;;5010139;28;20408;-78
2024/01/23 11:29:33;;;;;;;37.35;7.88;;;11.40;9.70;;;;;;4997700;28;20697;-78
2024/01/23 11:31:59;;;;;;;24.50;6.47;;;11.50;1.00;;;;;;5010084;28;20874;-78
2024/01/23 11:34:25;;;;;;;27.87;6.47;;;11.70;1.00;;;;;;4992723;28;20452;-79
2024/01/23 11:36:51;;;;;;;34.23;7.17;;;11.60;1.00;;;;;;5016949;28;20406;-78
2024/01/23 11:39:20;;;;;;;30.03;6.43;;;11.60;1.00;;;;;;5016841;28;20405;-78
2024/01/23 11:41:50;;;;;;;28.67;5.90;;;11.30;1.00;;;;;;5017020;28;20950;-78
2024/01/23 11:44:17;;;;;;;34.72;6.47;;;11.10;1.00;;;;;;4994802;28;20485;-78
2024/01/23 11:46:47;;;;;;;31.77;6.40;;;10.70;1.00;;;;;;5020549;28;20413;-78
2024/01/23 11:49:13;;;;;;;31.35;6.38;;;10.80;1.60;;;;;;5021116;28;20411;-78
2024/01/23 11:51:39;;;;;;;34.28;6.25;;;10.70;4.00;;;;;;5002913;28;20428;-77
2024/01/23 11:54:12;;;;;;;30.25;6.03;;;10.50;1.20;;;;;;5017873;28;20411;-78
2024/01/23 11:56:40;;;;;;;32.00;6.60;;;10.20;4.10;;;;;;5009747;28;20413;-78
2024/01/23 11:59:05;;;;;;;28.33;6.38;;;10.10;6.60;;;;;;4991950;28;20419;-78
2024/01/23 12:01:34;;;;;;;34.92;6.82;;;9.90;9.20;;;;;;4992518;28;20989;-78
2024/01/23 12:04:01;;;;;;;31.45;6.50;;;9.80;4.80;;;;;;5010065;28;20773;-77
2024/01/23 12:06:27;;;;;;;30.10;5.23;;;9.50;4.30;;;;;;5017211;28;20436;-78
2024/01/23 12:08:53;;;;;;;26.45;5.32;;;9.30;9.50;;;;;;5009246;28;20436;-78
2024/01/23 12:11:19;;;;;;;32.37;5.60;;;9.30;12.20;;;;;;5009853;28;20436;-77
2024/01/23 12:13:46;;;;;;;31.00;5.30;;;9.20;14.20;;;;;;5024552;28;20410;-78
2024/01/23 12:16:13;;;;;;;26.27;6.00;;;9.10;15.90;;;;;;5011581;28;20543;-77
2024/01/23 12:18:40;;;;;;;30.40;5.47;;;9.10;19.60;;;;;;5017001;28;20526;-78
2024/01/23 12:21:06;;;;;;;32.72;6.25;;;9.20;21.20;;;;;;5018976;28;21013;-78
2024/01/23 12:23:33;;;;;;;32.50;5.83;;;9.20;16.50;;;;;;5039050;28;20494;-78
2024/01/23 12:25:59;;;;;;;28.13;5.90;;;9.20;19.90;;;;;;5009127;28;20463;-78
2024/01/23 12:28:29;;;;;;;31.40;5.72;;;9.30;18.30;;;;;;5013073;28;20558;-79
2024/01/23 12:30:55;;;;;;;25.23;5.20;;;9.20;16.00;;;;;;5008180;28;20408;-78
2024/01/23 12:33:20;;;;;;;28.85;5.18;;;9.10;18.40;;;;;;5001941;28;20412;-78
2024/01/23 12:35:48;;;;;;;29.43;6.13;;;9.10;17.50;;;;;;4991426;28;20424;-78
2024/01/23 12:38:20;;;;;;;25.70;4.80;;;9.10;17.40;;;;;;4991211;28;20733;-78
2024/01/23 12:40:47;;;;;;;30.02;6.70;;;9.10;21.00;;;;;;5008646;28;20440;-78
2024/01/23 12:43:15;;;;;;;29.02;5.00;;;9.20;22.30;;;;;;5008679;28;20785;-78